sensor_id;sensor_type;location;lat;lon;timestamp;pressure;altitude;pressure_sealevel;temperature;humidity
57943;BME280;53626;51.224;-0.164;2022-08-19T00:00:31;100619.56;;;25.19;47.76
57943;BME280;53626;51.224;-0.164;2022-08-19T00:02:58;100621.76;;;25.43;47.80
57943;BME280;53626;51.224;-0.164;2022-08-19T00:05:26;100624.42;;;25.42;47.78
57943;BME280;53626;51.224;-0.164;2022-08-19T00:07:53;100627.57;;;25.42;47.79
57943;BME280;53626;51.224;-0.164;2022-08-19T00:10:21;100617.19;;;25.42;47.90
57943;BME280;53626;51.224;-0.164;2022-08-19T00:12:48;100618.14;;;25.40;47.91
57943;BME280;53626;51.224;-0.164;2022-08-19T00:15:18;100617.67;;;25.21;47.80
57943;BME280;53626;51.224;-0.164;2022-08-19T00:17:46;100617.02;;;25.21;47.96
57943;BME280;53626;51.224;-0.164;2022-08-19T00:20:16;100612.28;;;25.45;47.93
57943;BME280;53626;51.224;-0.164;2022-08-19T00:22:46;100612.22;;;25.41;47.99
57943;BME280;53626;51.224;-0.164;2022-08-19T00:25:13;100609.63;;;25.41;47.99
57943;BME280;53626;51.224;-0.164;2022-08-19T00:27:40;100607.17;;;25.68;47.95
57943;BME280;53626;51.224;-0.164;2022-08-19T00:30:08;100604.43;;;25.40;47.98
57943;BME280;53626;51.224;-0.164;2022-08-19T00:32:37;100606.14;;;25.37;48.16
57943;BME280;53626;51.224;-0.164;2022-08-19T00:35:05;100605.43;;;25.17;47.99
57943;BME280;53626;51.224;-0.164;2022-08-19T00:37:33;100607.60;;;25.63;48.09
57943;BME280;53626;51.224;-0.164;2022-08-19T00:40:00;100604.45;;;25.60;48.20
57943;BME280;53626;51.224;-0.164;2022-08-19T00:42:27;100599.73;;;25.59;48.31
57943;BME280;53626;51.224;-0.164;2022-08-19T00:44:55;100597.70;;;25.61;48.41
57943;BME280;53626;51.224;-0.164;2022-08-19T00:47:22;100599.24;;;25.33;48.37
57943;BME280;53626;51.224;-0.164;2022-08-19T00:49:51;100596.85;;;25.33;48.37
57943;BME280;53626;51.224;-0.164;2022-08-19T00:52:23;100594.96;;;25.33;48.26
57943;BME280;53626;51.224;-0.164;2022-08-19T00:54:51;100596.41;;;25.12;48.35
57943;BME280;53626;51.224;-0.164;2022-08-19T00:57:23;100597.60;;;25.32;48.56
57943;BME280;53626;51.224;-0.164;2022-08-19T00:59:54;100599.10;;;25.32;48.49
57943;BME280;53626;51.224;-0.164;2022-08-19T01:02:23;100596.35;;;25.31;48.63
57943;BME280;53626;51.224;-0.164;2022-08-19T01:04:50;100597.19;;;25.33;48.59
57943;BME280;53626;51.224;-0.164;2022-08-19T01:07:18;100594.50;;;25.32;48.44
57943;BME280;53626;51.224;-0.164;2022-08-19T01:09:45;100594.50;;;25.56;48.64
57943;BME280;53626;51.224;-0.164;2022-08-19T01:12:13;100596.79;;;25.28;48.63
57943;BME280;53626;51.224;-0.164;2022-08-19T01:14:40;100597.55;;;25.07;48.56
57943;BME280;53626;51.224;-0.164;2022-08-19T01:17:09;100596.19;;;25.13;48.48
57943;BME280;53626;51.224;-0.164;2022-08-19T01:19:40;100593.91;;;25.35;48.53
57943;BME280;53626;51.224;-0.164;2022-08-19T01:22:12;100592.61;;;25.13;48.58
57943;BME280;53626;51.224;-0.164;2022-08-19T01:24:41;100590.58;;;25.33;48.86
57943;BME280;53626;51.224;-0.164;2022-08-19T01:27:09;100588.16;;;25.10;48.80
57943;BME280;53626;51.224;-0.164;2022-08-19T01:29:41;100586.99;;;25.33;48.90
57943;BME280;53626;51.224;-0.164;2022-08-19T01:32:11;100589.97;;;25.13;48.64
57943;BME280;53626;51.224;-0.164;2022-08-19T01:34:39;100593.20;;;25.29;48.68
57943;BME280;53626;51.224;-0.164;2022-08-19T01:37:08;100588.41;;;25.27;48.74
57943;BME280;53626;51.224;-0.164;2022-08-19T01:39:35;100585.04;;;25.06;48.75
57943;BME280;53626;51.224;-0.164;2022-08-19T01:42:03;100583.74;;;25.27;48.78
57943;BME280;53626;51.224;-0.164;2022-08-19T01:44:31;100582.25;;;25.02;49.00
57943;BME280;53626;51.224;-0.164;2022-08-19T01:46:58;100586.46;;;25.53;49.01
57943;BME280;53626;51.224;-0.164;2022-08-19T01:49:26;100590.47;;;25.05;49.10
57943;BME280;53626;51.224;-0.164;2022-08-19T01:51:53;100589.63;;;25.23;49.00
57943;BME280;53626;51.224;-0.164;2022-08-19T01:54:22;100585.82;;;25.01;48.97
57943;BME280;53626;51.224;-0.164;2022-08-19T01:56:50;100584.65;;;25.23;49.04
57943;BME280;53626;51.224;-0.164;2022-08-19T01:59:20;100584.79;;;25.23;49.03
57943;BME280;53626;51.224;-0.164;2022-08-19T02:01:48;100582.73;;;25.01;49.08
57943;BME280;53626;51.224;-0.164;2022-08-19T02:04:15;100576.67;;;25.26;48.98
57943;BME280;53626;51.224;-0.164;2022-08-19T02:06:42;100578.12;;;25.26;49.11
57943;BME280;53626;51.224;-0.164;2022-08-19T02:09:10;100574.59;;;25.26;49.23
57943;BME280;53626;51.224;-0.164;2022-08-19T02:11:37;100573.96;;;25.25;49.10
57943;BME280;53626;51.224;-0.164;2022-08-19T02:14:06;100574.10;;;25.22;49.26
57943;BME280;53626;51.224;-0.164;2022-08-19T02:16:35;100576.90;;;25.27;49.23
57943;BME280;53626;51.224;-0.164;2022-08-19T02:19:03;100576.77;;;25.07;49.09
57943;BME280;53626;51.224;-0.164;2022-08-19T02:21:32;100576.97;;;25.25;49.17
57943;BME280;53626;51.224;-0.164;2022-08-19T02:24:00;100576.75;;;25.23;49.36
57943;BME280;53626;51.224;-0.164;2022-08-19T02:26:27;100579.05;;;25.01;49.36
57943;BME280;53626;51.224;-0.164;2022-08-19T02:28:55;100578.24;;;25.48;49.27
57943;BME280;53626;51.224;-0.164;2022-08-19T02:31:24;100581.71;;;25.22;49.20
57943;BME280;53626;51.224;-0.164;2022-08-19T02:33:52;100581.44;;;25.48;49.35
57943;BME280;53626;51.224;-0.164;2022-08-19T02:36:20;100581.39;;;25.47;49.49
57943;BME280;53626;51.224;-0.164;2022-08-19T02:38:48;100583.05;;;25.19;49.72
57943;BME280;53626;51.224;-0.164;2022-08-19T02:41:17;100582.49;;;25.16;49.50
57943;BME280;53626;51.224;-0.164;2022-08-19T02:43:46;100581.98;;;25.45;49.36
57943;BME280;53626;51.224;-0.164;2022-08-19T02:46:15;100578.67;;;25.44;49.35
57943;BME280;53626;51.224;-0.164;2022-08-19T02:48:42;100583.10;;;25.45;49.34
57943;BME280;53626;51.224;-0.164;2022-08-19T02:51:16;100585.21;;;25.17;49.55
57943;BME280;53626;51.224;-0.164;2022-08-19T02:53:44;100582.32;;;25.19;49.58
57943;BME280;53626;51.224;-0.164;2022-08-19T02:56:11;100581.27;;;25.22;49.62
57943;BME280;53626;51.224;-0.164;2022-08-19T02:58:39;100580.56;;;25.42;49.76
57943;BME280;53626;51.224;-0.164;2022-08-19T03:01:07;100583.66;;;25.17;49.60
57943;BME280;53626;51.224;-0.164;2022-08-19T03:03:34;100587.79;;;25.43;49.67
57943;BME280;53626;51.224;-0.164;2022-08-19T03:06:05;100589.16;;;24.93;49.54
57943;BME280;53626;51.224;-0.164;2022-08-19T03:08:33;100598.78;;;25.43;49.80
57943;BME280;53626;51.224;-0.164;2022-08-19T03:11:00;100596.40;;;24.95;49.92
57943;BME280;53626;51.224;-0.164;2022-08-19T03:13:27;100596.52;;;25.42;49.76
57943;BME280;53626;51.224;-0.164;2022-08-19T03:15:55;100593.49;;;25.17;49.54
57943;BME280;53626;51.224;-0.164;2022-08-19T03:18:22;100591.20;;;25.19;49.51
57943;BME280;53626;51.224;-0.164;2022-08-19T03:20:51;100587.60;;;25.17;49.58
57943;BME280;53626;51.224;-0.164;2022-08-19T03:23:18;100586.77;;;25.15;49.70
57943;BME280;53626;51.224;-0.164;2022-08-19T03:25:48;100587.62;;;25.15;49.71
57943;BME280;53626;51.224;-0.164;2022-08-19T03:28:16;100590.61;;;24.92;49.72
57943;BME280;53626;51.224;-0.164;2022-08-19T03:30:55;100589.02;;;25.12;49.91
57943;BME280;53626;51.224;-0.164;2022-08-19T03:33:24;100590.09;;;25.38;49.82
57943;BME280;53626;51.224;-0.164;2022-08-19T03:36:09;100590.00;;;25.12;49.85
57943;BME280;53626;51.224;-0.164;2022-08-19T03:38:40;100589.34;;;24.93;49.79
57943;BME280;53626;51.224;-0.164;2022-08-19T03:41:10;100586.53;;;25.42;50.06
57943;BME280;53626;51.224;-0.164;2022-08-19T03:43:39;100586.35;;;24.89;50.17
57943;BME280;53626;51.224;-0.164;2022-08-19T03:46:09;100592.83;;;25.13;50.17
57943;BME280;53626;51.224;-0.164;2022-08-19T03:48:38;100592.52;;;25.09;50.10
57943;BME280;53626;51.224;-0.164;2022-08-19T03:51:06;100595.21;;;24.87;49.96
57943;BME280;53626;51.224;-0.164;2022-08-19T03:53:35;100597.63;;;25.10;50.02
57943;BME280;53626;51.224;-0.164;2022-08-19T03:56:03;100597.14;;;25.11;50.25
57943;BME280;53626;51.224;-0.164;2022-08-19T03:58:30;100596.16;;;25.35;50.24
57943;BME280;53626;51.224;-0.164;2022-08-19T04:00:57;100594.80;;;25.36;50.34
57943;BME280;53626;51.224;-0.164;2022-08-19T04:03:25;100591.12;;;25.10;50.23
57943;BME280;53626;51.224;-0.164;2022-08-19T04:05:52;100588.54;;;25.08;50.31
57943;BME280;53626;51.224;-0.164;2022-08-19T04:08:20;100585.21;;;25.10;50.02
57943;BME280;53626;51.224;-0.164;2022-08-19T04:10:48;100586.48;;;25.10;50.08
57943;BME280;53626;51.224;-0.164;2022-08-19T04:13:17;100591.15;;;25.07;50.08
57943;BME280;53626;51.224;-0.164;2022-08-19T04:15:45;100591.78;;;25.11;50.31
57943;BME280;53626;51.224;-0.164;2022-08-19T04:18:14;100593.89;;;25.14;50.15
57943;BME280;53626;51.224;-0.164;2022-08-19T04:20:43;100596.73;;;25.38;49.98
57943;BME280;53626;51.224;-0.164;2022-08-19T04:23:10;100597.73;;;25.08;49.88
57943;BME280;53626;51.224;-0.164;2022-08-19T04:25:39;100595.97;;;25.07;50.10
57943;BME280;53626;51.224;-0.164;2022-08-19T04:28:08;100594.67;;;24.85;50.18
57943;BME280;53626;51.224;-0.164;2022-08-19T04:30:39;100598.49;;;25.07;50.14
57943;BME280;53626;51.224;-0.164;2022-08-19T04:33:06;100601.27;;;25.06;50.30
57943;BME280;53626;51.224;-0.164;2022-08-19T04:35:36;100602.77;;;25.33;50.16
57943;BME280;53626;51.224;-0.164;2022-08-19T04:38:03;100604.95;;;25.07;50.00
57943;BME280;53626;51.224;-0.164;2022-08-19T04:40:31;100603.75;;;25.06;50.16
57943;BME280;53626;51.224;-0.164;2022-08-19T04:42:58;100606.53;;;25.08;50.14
57943;BME280;53626;51.224;-0.164;2022-08-19T04:45:25;100604.99;;;25.04;50.48
57943;BME280;53626;51.224;-0.164;2022-08-19T04:47:55;100606.27;;;25.03;50.64
57943;BME280;53626;51.224;-0.164;2022-08-19T04:50:22;100608.45;;;25.04;50.27
57943;BME280;53626;51.224;-0.164;2022-08-19T04:52:51;100611.50;;;25.31;50.12
57943;BME280;53626;51.224;-0.164;2022-08-19T04:55:18;100613.41;;;25.32;50.19
57943;BME280;53626;51.224;-0.164;2022-08-19T04:57:46;100616.59;;;25.01;50.80
57943;BME280;53626;51.224;-0.164;2022-08-19T05:00:14;100624.03;;;25.03;50.50
57943;BME280;53626;51.224;-0.164;2022-08-19T05:02:40;100625.01;;;25.28;50.26
57943;BME280;53626;51.224;-0.164;2022-08-19T05:05:08;100623.66;;;25.04;50.17
57943;BME280;53626;51.224;-0.164;2022-08-19T05:07:36;100623.31;;;25.30;50.44
57943;BME280;53626;51.224;-0.164;2022-08-19T05:10:04;100627.31;;;25.02;50.40
57943;BME280;53626;51.224;-0.164;2022-08-19T05:12:32;100632.05;;;25.01;50.44
57943;BME280;53626;51.224;-0.164;2022-08-19T05:14:59;100633.90;;;25.32;50.48
57943;BME280;53626;51.224;-0.164;2022-08-19T05:17:27;100632.14;;;25.13;50.58
57943;BME280;53626;51.224;-0.164;2022-08-19T05:19:55;100634.95;;;24.91;50.70
57943;BME280;53626;51.224;-0.164;2022-08-19T05:22:22;100634.80;;;25.07;50.62
57943;BME280;53626;51.224;-0.164;2022-08-19T05:24:49;100638.48;;;25.30;50.92
57943;BME280;53626;51.224;-0.164;2022-08-19T05:27:17;100640.27;;;25.44;50.34
57943;BME280;53626;51.224;-0.164;2022-08-19T05:29:45;100645.22;;;25.37;50.20
57943;BME280;53626;51.224;-0.164;2022-08-19T05:32:12;100643.71;;;25.08;50.27
57943;BME280;53626;51.224;-0.164;2022-08-19T05:34:39;100641.22;;;24.84;50.10
57943;BME280;53626;51.224;-0.164;2022-08-19T05:37:07;100640.65;;;25.02;50.46
57943;BME280;53626;51.224;-0.164;2022-08-19T05:39:36;100642.76;;;25.01;50.28
57943;BME280;53626;51.224;-0.164;2022-08-19T05:42:06;100640.73;;;25.29;50.20
57943;BME280;53626;51.224;-0.164;2022-08-19T05:44:36;100641.96;;;25.02;50.24
57943;BME280;53626;51.224;-0.164;2022-08-19T05:47:06;100645.37;;;25.12;50.08
57943;BME280;53626;51.224;-0.164;2022-08-19T05:49:35;100650.75;;;24.88;50.21
57943;BME280;53626;51.224;-0.164;2022-08-19T05:52:03;100655.47;;;25.08;50.31
57943;BME280;53626;51.224;-0.164;2022-08-19T05:54:30;100656.53;;;25.29;50.36
57943;BME280;53626;51.224;-0.164;2022-08-19T05:56:57;100658.36;;;25.30;50.30
57943;BME280;53626;51.224;-0.164;2022-08-19T05:59:25;100653.69;;;25.04;50.39
57943;BME280;53626;51.224;-0.164;2022-08-19T06:01:53;100654.13;;;24.78;50.31
57943;BME280;53626;51.224;-0.164;2022-08-19T06:04:21;100652.96;;;24.98;50.27
57943;BME280;53626;51.224;-0.164;2022-08-19T06:06:51;100653.82;;;25.02;50.18
57943;BME280;53626;51.224;-0.164;2022-08-19T06:09:21;100657.49;;;25.00;50.17
57943;BME280;53626;51.224;-0.164;2022-08-19T06:11:50;100654.41;;;25.27;50.20
57943;BME280;53626;51.224;-0.164;2022-08-19T06:14:20;100653.35;;;25.26;50.20
57943;BME280;53626;51.224;-0.164;2022-08-19T06:16:49;100653.86;;;25.03;50.09
57943;BME280;53626;51.224;-0.164;2022-08-19T06:19:18;100657.64;;;25.36;49.96
57943;BME280;53626;51.224;-0.164;2022-08-19T06:21:47;100660.48;;;24.84;50.09
57943;BME280;53626;51.224;-0.164;2022-08-19T06:24:16;100661.07;;;25.32;50.10
57943;BME280;53626;51.224;-0.164;2022-08-19T06:26:46;100659.64;;;25.29;50.11
57943;BME280;53626;51.224;-0.164;2022-08-19T06:29:16;100663.18;;;25.04;50.06
57943;BME280;53626;51.224;-0.164;2022-08-19T06:31:48;100659.23;;;25.27;50.04
57943;BME280;53626;51.224;-0.164;2022-08-19T06:34:17;100662.55;;;25.00;49.98
57943;BME280;53626;51.224;-0.164;2022-08-19T06:36:49;100665.65;;;25.27;49.92
57943;BME280;53626;51.224;-0.164;2022-08-19T06:39:19;100666.96;;;25.26;49.89
57943;BME280;53626;51.224;-0.164;2022-08-19T06:41:49;100669.50;;;25.25;49.93
57943;BME280;53626;51.224;-0.164;2022-08-19T06:44:17;100669.37;;;24.99;49.92
57943;BME280;53626;51.224;-0.164;2022-08-19T06:46:45;100663.33;;;25.28;49.84
57943;BME280;53626;51.224;-0.164;2022-08-19T06:49:13;100667.05;;;25.27;49.85
57943;BME280;53626;51.224;-0.164;2022-08-19T06:51:42;100668.77;;;24.75;49.84
57943;BME280;53626;51.224;-0.164;2022-08-19T06:54:10;100668.73;;;25.21;49.85
57943;BME280;53626;51.224;-0.164;2022-08-19T06:56:38;100668.16;;;24.74;49.86
57943;BME280;53626;51.224;-0.164;2022-08-19T06:59:09;100672.65;;;24.97;49.81
57943;BME280;53626;51.224;-0.164;2022-08-19T07:01:38;100673.51;;;25.23;49.81
57943;BME280;53626;51.224;-0.164;2022-08-19T07:04:08;100674.68;;;24.76;49.78
57943;BME280;53626;51.224;-0.164;2022-08-19T07:06:36;100673.51;;;24.99;49.71
57943;BME280;53626;51.224;-0.164;2022-08-19T07:09:05;100675.28;;;24.98;49.76
57943;BME280;53626;51.224;-0.164;2022-08-19T07:11:32;100676.72;;;24.95;49.80
57943;BME280;53626;51.224;-0.164;2022-08-19T07:14:00;100678.16;;;24.96;49.73
57943;BME280;53626;51.224;-0.164;2022-08-19T07:16:29;100675.96;;;24.97;49.78
57943;BME280;53626;51.224;-0.164;2022-08-19T07:18:57;100677.35;;;25.29;49.84
57943;BME280;53626;51.224;-0.164;2022-08-19T07:21:27;100682.27;;;24.96;49.73
57943;BME280;53626;51.224;-0.164;2022-08-19T07:23:55;100681.86;;;25.23;49.64
57943;BME280;53626;51.224;-0.164;2022-08-19T07:26:26;100679.61;;;24.96;49.53
57943;BME280;53626;51.224;-0.164;2022-08-19T07:28:55;100680.75;;;25.22;49.60
57943;BME280;53626;51.224;-0.164;2022-08-19T07:31:24;100684.26;;;25.23;49.57
57943;BME280;53626;51.224;-0.164;2022-08-19T07:33:53;100689.02;;;24.95;49.48
57943;BME280;53626;51.224;-0.164;2022-08-19T07:36:23;100690.06;;;25.20;49.42
57943;BME280;53626;51.224;-0.164;2022-08-19T07:38:51;100689.13;;;24.94;49.40
57943;BME280;53626;51.224;-0.164;2022-08-19T07:41:22;100690.72;;;24.90;49.37
57943;BME280;53626;51.224;-0.164;2022-08-19T07:43:51;100691.51;;;24.91;49.42
57943;BME280;53626;51.224;-0.164;2022-08-19T07:46:18;100688.05;;;25.18;49.40
57943;BME280;53626;51.224;-0.164;2022-08-19T07:48:48;100683.68;;;25.17;49.36
57943;BME280;53626;51.224;-0.164;2022-08-19T07:51:18;100678.64;;;24.92;49.27
57943;BME280;53626;51.224;-0.164;2022-08-19T07:53:48;100675.24;;;24.70;49.30
57943;BME280;53626;51.224;-0.164;2022-08-19T07:58:41;100685.38;;;25.83;47.69
57943;BME280;53626;51.224;-0.164;2022-08-19T08:01:12;100689.40;;;25.60;48.52
57943;BME280;53626;51.224;-0.164;2022-08-19T08:03:39;100692.94;;;25.72;47.98
57943;BME280;53626;51.224;-0.164;2022-08-19T08:06:07;100697.97;;;25.96;48.05
57943;BME280;53626;51.224;-0.164;2022-08-19T08:08:34;100698.85;;;25.84;49.76
57943;BME280;53626;51.224;-0.164;2022-08-19T08:11:02;100699.54;;;25.61;49.27
57943;BME280;53626;51.224;-0.164;2022-08-19T08:13:29;100702.61;;;25.72;48.80
57943;BME280;53626;51.224;-0.164;2022-08-19T08:15:56;100705.07;;;25.95;49.13
57943;BME280;53626;51.224;-0.164;2022-08-19T08:18:25;100707.50;;;26.19;48.51
57943;BME280;53626;51.224;-0.164;2022-08-19T08:20:52;100715.94;;;26.31;48.48
57943;BME280;53626;51.224;-0.164;2022-08-19T08:23:21;100711.97;;;26.49;48.43
57943;BME280;53626;51.224;-0.164;2022-08-19T08:25:48;100712.30;;;26.40;48.58
57943;BME280;53626;51.224;-0.164;2022-08-19T08:28:16;100715.75;;;26.36;49.37
57943;BME280;53626;51.224;-0.164;2022-08-19T08:30:44;100711.60;;;26.66;48.40
57943;BME280;53626;51.224;-0.164;2022-08-19T08:33:12;100706.96;;;26.83;47.70
57943;BME280;53626;51.224;-0.164;2022-08-19T08:35:40;100710.51;;;26.96;47.26
57943;BME280;53626;51.224;-0.164;2022-08-19T08:38:07;100707.68;;;26.57;47.70
57943;BME280;53626;51.224;-0.164;2022-08-19T08:40:44;100708.42;;;26.79;47.59
57943;BME280;53626;51.224;-0.164;2022-08-19T08:43:21;100707.28;;;27.00;47.69
57943;BME280;53626;51.224;-0.164;2022-08-19T08:45:53;100705.73;;;27.13;46.19
57943;BME280;53626;51.224;-0.164;2022-08-19T08:48:27;100705.90;;;26.93;45.40
57943;BME280;53626;51.224;-0.164;2022-08-19T08:50:59;100705.72;;;26.80;44.87
57943;BME280;53626;51.224;-0.164;2022-08-19T08:53:28;100709.47;;;26.51;44.73
57943;BME280;53626;51.224;-0.164;2022-08-19T08:55:58;100705.59;;;26.82;44.91
57943;BME280;53626;51.224;-0.164;2022-08-19T08:58:39;100709.38;;;26.48;43.77
57943;BME280;53626;51.224;-0.164;2022-08-19T09:01:11;100701.87;;;26.79;43.63
57943;BME280;53626;51.224;-0.164;2022-08-19T09:03:40;100701.08;;;26.97;43.57
57943;BME280;53626;51.224;-0.164;2022-08-19T09:06:14;100697.27;;;26.57;43.88
57943;BME280;53626;51.224;-0.164;2022-08-19T09:09:00;100700.13;;;26.92;43.48
57943;BME280;53626;51.224;-0.164;2022-08-19T09:11:44;100693.79;;;26.69;43.59
57943;BME280;53626;51.224;-0.164;2022-08-19T09:14:23;100696.65;;;26.77;43.63
57943;BME280;53626;51.224;-0.164;2022-08-19T09:16:52;100699.07;;;26.57;43.88
57943;BME280;53626;51.224;-0.164;2022-08-19T09:19:21;100701.93;;;26.50;44.12
57943;BME280;53626;51.224;-0.164;2022-08-19T09:21:48;100696.15;;;26.44;44.16
57943;BME280;53626;51.224;-0.164;2022-08-19T09:24:16;100700.94;;;26.72;44.02
57943;BME280;53626;51.224;-0.164;2022-08-19T09:26:43;100697.87;;;26.87;43.53
57943;BME280;53626;51.224;-0.164;2022-08-19T09:29:11;100696.52;;;27.20;44.65
57943;BME280;53626;51.224;-0.164;2022-08-19T09:31:38;100695.81;;;26.97;43.38
57943;BME280;53626;51.224;-0.164;2022-08-19T09:34:05;100694.56;;;27.12;42.61
57943;BME280;53626;51.224;-0.164;2022-08-19T09:36:33;100691.56;;;27.15;42.63
57943;BME280;53626;51.224;-0.164;2022-08-19T09:39:00;100693.66;;;27.31;44.49
57943;BME280;53626;51.224;-0.164;2022-08-19T09:41:28;100696.49;;;26.68;43.34
57943;BME280;53626;51.224;-0.164;2022-08-19T09:43:56;100694.75;;;27.26;42.69
57943;BME280;53626;51.224;-0.164;2022-08-19T09:46:27;100696.05;;;27.55;42.59
57943;BME280;53626;51.224;-0.164;2022-08-19T09:48:58;100691.89;;;27.38;42.75
57943;BME280;53626;51.224;-0.164;2022-08-19T09:51:27;100687.63;;;27.15;43.86
57943;BME280;53626;51.224;-0.164;2022-08-19T09:53:54;100689.67;;;27.47;43.66
57943;BME280;53626;51.224;-0.164;2022-08-19T09:56:26;100690.01;;;27.11;43.49
57943;BME280;53626;51.224;-0.164;2022-08-19T09:58:53;100692.86;;;26.89;44.15
57943;BME280;53626;51.224;-0.164;2022-08-19T10:01:23;100695.74;;;26.97;43.17
57943;BME280;53626;51.224;-0.164;2022-08-19T10:03:53;100696.18;;;26.59;43.41
57943;BME280;53626;51.224;-0.164;2022-08-19T10:06:22;100698.55;;;27.36;43.19
57943;BME280;53626;51.224;-0.164;2022-08-19T10:08:50;100703.22;;;27.29;42.96
57943;BME280;53626;51.224;-0.164;2022-08-19T10:11:19;100700.55;;;27.26;42.46
57943;BME280;53626;51.224;-0.164;2022-08-19T10:13:47;100704.57;;;27.45;42.72
57943;BME280;53626;51.224;-0.164;2022-08-19T10:16:17;100706.89;;;27.21;43.18
57943;BME280;53626;51.224;-0.164;2022-08-19T10:18:45;100709.22;;;27.41;43.89
57943;BME280;53626;51.224;-0.164;2022-08-19T10:21:16;100712.69;;;27.00;44.41
57943;BME280;53626;51.224;-0.164;2022-08-19T10:23:45;100711.12;;;26.68;44.21
57943;BME280;53626;51.224;-0.164;2022-08-19T10:26:14;100715.49;;;26.81;44.09
57943;BME280;53626;51.224;-0.164;2022-08-19T10:28:43;100718.34;;;27.32;44.05
57943;BME280;53626;51.224;-0.164;2022-08-19T10:31:14;100719.83;;;27.09;46.68
57943;BME280;53626;51.224;-0.164;2022-08-19T10:33:42;100725.72;;;26.96;45.57
57943;BME280;53626;51.224;-0.164;2022-08-19T10:36:11;100727.38;;;27.01;45.08
57943;BME280;53626;51.224;-0.164;2022-08-19T10:38:39;100735.80;;;26.68;45.42
57943;BME280;53626;51.224;-0.164;2022-08-19T10:41:08;100739.19;;;26.55;46.53
57943;BME280;53626;51.224;-0.164;2022-08-19T10:43:35;100743.81;;;26.37;46.65
57943;BME280;53626;51.224;-0.164;2022-08-19T10:46:04;100746.59;;;26.39;46.83
57943;BME280;53626;51.224;-0.164;2022-08-19T10:48:31;100747.90;;;26.31;48.42
57943;BME280;53626;51.224;-0.164;2022-08-19T10:50:58;100750.49;;;26.05;48.84
57943;BME280;53626;51.224;-0.164;2022-08-19T10:53:25;100750.34;;;26.16;49.26
57943;BME280;53626;51.224;-0.164;2022-08-19T10:55:52;100750.35;;;26.33;47.96
57943;BME280;53626;51.224;-0.164;2022-08-19T10:58:21;100746.68;;;26.55;47.08
57943;BME280;53626;51.224;-0.164;2022-08-19T11:00:52;100747.31;;;26.27;47.49
57943;BME280;53626;51.224;-0.164;2022-08-19T11:03:20;100750.16;;;26.39;47.67
57943;BME280;53626;51.224;-0.164;2022-08-19T11:05:58;100749.37;;;26.11;49.70
57943;BME280;53626;51.224;-0.164;2022-08-19T11:08:25;100753.07;;;25.83;48.63
57943;BME280;53626;51.224;-0.164;2022-08-19T11:10:53;100754.15;;;26.06;48.28
57943;BME280;53626;51.224;-0.164;2022-08-19T11:13:21;100756.57;;;26.05;48.95
57943;BME280;53626;51.224;-0.164;2022-08-19T11:15:57;100756.94;;;26.06;48.05
57943;BME280;53626;51.224;-0.164;2022-08-19T11:18:25;100753.02;;;26.20;47.92
57943;BME280;53626;51.224;-0.164;2022-08-19T11:20:52;100752.65;;;26.18;47.90
57943;BME280;53626;51.224;-0.164;2022-08-19T11:23:20;100754.89;;;26.21;48.26
57943;BME280;53626;51.224;-0.164;2022-08-19T11:25:49;100755.53;;;26.40;46.75
57943;BME280;53626;51.224;-0.164;2022-08-19T11:28:16;100759.29;;;26.59;47.28
57943;BME280;53626;51.224;-0.164;2022-08-19T11:30:43;100755.72;;;26.40;47.00
57943;BME280;53626;51.224;-0.164;2022-08-19T11:33:11;100756.73;;;26.22;49.21
57943;BME280;53626;51.224;-0.164;2022-08-19T11:35:39;100761.37;;;26.51;47.43
57943;BME280;53626;51.224;-0.164;2022-08-19T11:38:07;100758.12;;;26.81;47.24
57943;BME280;53626;51.224;-0.164;2022-08-19T11:40:34;100756.72;;;26.62;46.80
57943;BME280;53626;51.224;-0.164;2022-08-19T11:43:01;100757.59;;;26.27;47.51
57943;BME280;53626;51.224;-0.164;2022-08-19T11:45:29;100755.02;;;26.76;46.55
57943;BME280;53626;51.224;-0.164;2022-08-19T11:47:57;100757.28;;;26.55;45.65
57943;BME280;53626;51.224;-0.164;2022-08-19T11:50:25;100753.57;;;26.54;45.88
57943;BME280;53626;51.224;-0.164;2022-08-19T11:52:54;100755.78;;;26.67;45.31
57943;BME280;53626;51.224;-0.164;2022-08-19T11:55:22;100753.99;;;26.94;44.86
57943;BME280;53626;51.224;-0.164;2022-08-19T11:57:50;100754.47;;;26.80;44.62
57943;BME280;53626;51.224;-0.164;2022-08-19T12:00:18;100747.56;;;27.15;44.15
57943;BME280;53626;51.224;-0.164;2022-08-19T12:02:46;100745.93;;;27.17;43.79
57943;BME280;53626;51.224;-0.164;2022-08-19T12:05:12;100751.32;;;27.03;43.54
57943;BME280;53626;51.224;-0.164;2022-08-19T12:07:40;100754.43;;;27.26;43.17
57943;BME280;53626;51.224;-0.164;2022-08-19T12:10:08;100758.61;;;26.80;44.83
57943;BME280;53626;51.224;-0.164;2022-08-19T12:12:35;100758.50;;;26.86;44.67
57943;BME280;53626;51.224;-0.164;2022-08-19T12:15:03;100753.48;;;26.70;42.84
57943;BME280;53626;51.224;-0.164;2022-08-19T12:17:31;100752.68;;;26.56;43.00
57943;BME280;53626;51.224;-0.164;2022-08-19T12:19:59;100753.05;;;26.76;42.96
57943;BME280;53626;51.224;-0.164;2022-08-19T12:22:27;100749.49;;;27.24;42.52
57943;BME280;53626;51.224;-0.164;2022-08-19T12:24:54;100745.00;;;27.17;41.35
57943;BME280;53626;51.224;-0.164;2022-08-19T12:27:21;100744.99;;;27.07;40.20
57943;BME280;53626;51.224;-0.164;2022-08-19T12:29:49;100745.69;;;27.10;39.42
57943;BME280;53626;51.224;-0.164;2022-08-19T12:32:16;100750.96;;;27.42;38.17
57943;BME280;53626;51.224;-0.164;2022-08-19T12:34:44;100748.65;;;26.72;38.49
57943;BME280;53626;51.224;-0.164;2022-08-19T12:37:11;100756.27;;;27.31;38.54
57943;BME280;53626;51.224;-0.164;2022-08-19T12:39:40;100752.90;;;27.10;38.21
57943;BME280;53626;51.224;-0.164;2022-08-19T12:42:08;100750.00;;;26.79;38.28
57943;BME280;53626;51.224;-0.164;2022-08-19T12:44:37;100750.71;;;27.08;38.02
57943;BME280;53626;51.224;-0.164;2022-08-19T12:47:05;100747.61;;;26.75;37.40
57943;BME280;53626;51.224;-0.164;2022-08-19T12:49:33;100748.00;;;27.11;36.42